Terminal Aerodrome Forecast
Issued by NWS

Home | Current Version | Previous Version | Text Only | Print | Product List | Glossary Off
Versions: 1 2 3 4 5 6 7 8 9 10 11 12

000
FTUS43 KMPX 160520
TAFRNH
TAF
KRNH 160520Z 1606/1706 33014G23KT P6SM SCT040 SCT100
     FM160900 32008KT P6SM SKC
     FM161600 24007KT P6SM SKC
     FM170000 19006KT P6SM SKC=

USA.gov is the U.S. government's official web portal to all federal, state and local government web resources and services.